createdAt,value
2018-06-12T00:00:58.734Z,100797.17
2018-06-12T00:03:27.183Z,100795.44
2018-06-12T00:05:55.598Z,100799.37
2018-06-12T00:08:23.975Z,100801.11
2018-06-12T00:10:52.350Z,100803.28
2018-06-12T00:13:20.747Z,100803.30
2018-06-12T00:15:49.123Z,100802.86
2018-06-12T00:18:17.518Z,100804.16
2018-06-12T00:20:45.895Z,100808.50
2018-06-12T00:23:14.294Z,100808.07
2018-06-12T00:25:42.670Z,100806.77
2018-06-12T00:28:11.062Z,100806.34
2018-06-12T00:30:39.432Z,100808.05
2018-06-12T00:33:07.831Z,100811.95
2018-06-12T00:35:36.202Z,100812.85
2018-06-12T00:38:04.598Z,100806.73
2018-06-12T00:40:32.971Z,100805.44
2018-06-12T00:43:01.366Z,100807.60
2018-06-12T00:45:29.742Z,100812.41
2018-06-12T00:47:58.134Z,100810.21
2018-06-12T00:50:26.506Z,100816.75
2018-06-12T00:52:54.902Z,100816.31
2018-06-12T00:55:23.279Z,100818.89
2018-06-12T00:57:51.699Z,100819.35
2018-06-12T01:00:20.072Z,100818.48
2018-06-12T01:02:48.469Z,100816.30
2018-06-12T01:05:16.868Z,100822.82
2018-06-12T01:07:45.235Z,100820.62
2018-06-12T01:10:13.634Z,100824.53
2018-06-12T01:12:42.011Z,100822.34
2018-06-12T01:15:10.407Z,100824.52
2018-06-12T01:17:38.782Z,100823.20
2018-06-12T01:20:07.182Z,100828.39
2018-06-12T01:22:35.554Z,100822.75
2018-06-12T01:25:04.003Z,100821.88
2018-06-12T01:27:32.376Z,100828.81
2018-06-12T01:30:00.770Z,100822.70
2018-06-12T01:32:29.149Z,100822.23
2018-06-12T01:34:57.541Z,100817.44
2018-06-12T01:37:25.918Z,100813.95
2018-06-12T01:39:54.318Z,100805.66
2018-06-12T01:42:22.717Z,100810.02
2018-06-12T01:44:51.118Z,100804.77
2018-06-12T01:47:19.557Z,100805.20
2018-06-12T01:49:47.951Z,100806.92
2018-06-12T01:52:16.318Z,100803.89
2018-06-12T01:54:44.695Z,100802.11
2018-06-12T01:57:13.095Z,100802.52
2018-06-12T01:59:41.467Z,100800.34
2018-06-12T02:02:09.853Z,100803.80
2018-06-12T02:04:38.251Z,100804.24
2018-06-12T02:07:06.654Z,100801.64
2018-06-12T02:09:35.071Z,100801.20
2018-06-12T02:12:03.460Z,100795.57
2018-06-12T02:14:31.937Z,100791.25
2018-06-12T02:17:00.339Z,100790.80
2018-06-12T02:19:28.718Z,100789.50
2018-06-12T02:21:57.123Z,100782.56
2018-06-12T02:24:25.489Z,100782.98
2018-06-12T02:26:53.893Z,100783.84
2018-06-12T02:29:22.273Z,100782.52
2018-06-12T02:31:50.673Z,100781.64
2018-06-12T02:34:19.054Z,100778.19
2018-06-12T02:36:47.475Z,100768.63
2018-06-12T02:39:15.847Z,100769.50
2018-06-12T02:41:44.215Z,100767.76
2018-06-12T02:44:12.626Z,100767.76
2018-06-12T02:46:41.015Z,100771.69
2018-06-12T02:49:09.413Z,100768.64
2018-06-12T02:51:37.783Z,100773.05
2018-06-12T02:54:06.178Z,100773.94
2018-06-12T02:56:34.559Z,100775.70
2018-06-12T02:59:02.959Z,100766.58
2018-06-12T03:01:31.334Z,100771.80
2018-06-12T03:03:59.931Z,100763.14
2018-06-12T03:06:28.293Z,100760.54
2018-06-12T03:08:56.682Z,100766.23
2018-06-12T03:11:25.059Z,100755.37
2018-06-12T03:13:53.466Z,100754.52
2018-06-12T03:16:21.847Z,100756.27
2018-06-12T03:18:50.227Z,100748.88
2018-06-12T03:21:18.626Z,100751.48
2018-06-12T03:23:46.999Z,100748.45
2018-06-12T03:26:15.381Z,100756.30
2018-06-12T03:28:43.758Z,100758.45
2018-06-12T03:31:12.160Z,100755.41
2018-06-12T03:33:40.526Z,100754.56
2018-06-12T03:36:08.923Z,100757.16
2018-06-12T03:38:37.289Z,100760.64
2018-06-12T03:41:05.698Z,100752.39
2018-06-12T03:43:34.075Z,100756.28
2018-06-12T03:46:02.476Z,100756.71
2018-06-12T03:48:30.859Z,100762.37
2018-06-12T03:50:59.275Z,100767.59
2018-06-12T03:53:27.651Z,100765.01
2018-06-12T03:55:56.027Z,100763.68
2018-06-12T03:58:24.413Z,100767.16
2018-06-12T04:00:52.783Z,100759.76
2018-06-12T04:03:21.202Z,100765.84
2018-06-12T04:05:49.593Z,100765.41
2018-06-12T04:08:17.991Z,100768.42
2018-06-12T04:10:46.369Z,100774.07
2018-06-12T04:13:14.767Z,100772.75
2018-06-12T04:15:43.130Z,100777.55
2018-06-12T04:18:11.527Z,100771.86
2018-06-12T04:20:39.895Z,100776.20
2018-06-12T04:23:08.290Z,100774.88
2018-06-12T04:25:36.663Z,100776.61
2018-06-12T04:28:05.095Z,100778.77
2018-06-12T04:30:33.502Z,100778.75
2018-06-12T04:33:01.886Z,100782.66
2018-06-12T04:35:30.279Z,100769.16
2018-06-12T04:37:58.659Z,100773.07
2018-06-12T04:40:27.049Z,100773.92
2018-06-12T04:42:55.422Z,100774.77
2018-06-12T04:45:23.817Z,100775.58
2018-06-12T04:47:52.177Z,100772.51
2018-06-12T04:50:20.568Z,100773.80
2018-06-12T04:52:48.929Z,100774.19
2018-06-12T04:55:17.312Z,100780.30
2018-06-12T04:57:45.768Z,100775.46
2018-06-12T05:00:14.167Z,100773.69
2018-06-12T05:02:42.575Z,100776.69
2018-06-12T05:05:10.971Z,100765.30
2018-06-12T05:07:39.341Z,100773.13
2018-06-12T05:10:07.737Z,100767.84
2018-06-12T05:12:36.116Z,100774.80
2018-06-12T05:15:04.517Z,100779.52
2018-06-12T05:17:32.889Z,100782.56
2018-06-12T05:20:01.349Z,100785.11
2018-06-12T05:22:29.666Z,100787.70
2018-06-12T05:24:58.059Z,100784.14
2018-06-12T05:27:26.500Z,100791.11
2018-06-12T05:29:54.922Z,100788.48
2018-06-12T05:32:23.290Z,100793.24
2018-06-12T05:34:51.683Z,100789.77
2018-06-12T05:37:20.119Z,100791.94
2018-06-12T05:39:48.513Z,100799.34
2018-06-12T05:42:16.886Z,100800.66
2018-06-12T05:44:45.310Z,100802.86
2018-06-12T05:47:13.677Z,100811.13
2018-06-12T05:49:42.042Z,100809.81
2018-06-12T05:52:10.498Z,100817.26
2018-06-12T05:54:38.861Z,100819.40
2018-06-12T05:57:07.259Z,100814.19
2018-06-12T05:59:35.621Z,100817.67
2018-06-12T06:02:04.138Z,100823.77
2018-06-12T06:04:32.598Z,100835.52
2018-06-12T06:07:00.987Z,100826.77
2018-06-12T06:09:29.355Z,100831.11
2018-06-12T06:11:57.744Z,100826.73
2018-06-12T06:14:26.118Z,100831.08
2018-06-12T06:16:54.514Z,100831.05
2018-06-12T06:19:22.956Z,100832.35
2018-06-12T06:21:51.352Z,100834.08
2018-06-12T06:24:19.723Z,100834.04
2018-06-12T06:26:48.142Z,100834.93
2018-06-12T06:29:16.511Z,100833.13
2018-06-12T06:31:44.882Z,100838.33
2018-06-12T06:34:13.355Z,100840.92
2018-06-12T06:36:41.728Z,100838.75
2018-06-12T06:39:10.123Z,100839.61
2018-06-12T06:41:38.493Z,100843.95
2018-06-12T06:44:06.887Z,100845.70
2018-06-12T06:46:35.258Z,100850.95
2018-06-12T06:49:03.646Z,100852.71
2018-06-12T06:51:32.036Z,100853.58
2018-06-12T06:54:00.446Z,100850.99
2018-06-12T06:56:28.815Z,100855.38
2018-06-12T06:58:57.219Z,100853.16
2018-06-12T07:01:25.591Z,100855.33
2018-06-12T07:03:54.011Z,100863.16
2018-06-12T07:06:22.395Z,100866.19
2018-06-12T07:08:50.794Z,100865.73
2018-06-12T07:11:19.183Z,100867.95
2018-06-12T07:13:47.583Z,100865.73
2018-06-12T07:16:15.958Z,100860.05
2018-06-12T07:18:44.354Z,100861.36
2018-06-12T07:21:19.395Z,100867.45
2018-06-12T07:23:47.901Z,100868.73
2018-06-12T07:26:16.464Z,100865.25
2018-06-12T07:28:44.859Z,100870.90
2018-06-12T07:31:13.254Z,100870.00
2018-06-12T07:33:41.778Z,100875.24
2018-06-12T07:36:10.148Z,100874.34
2018-06-12T07:38:38.522Z,100883.48
2018-06-12T07:41:06.919Z,100887.83
2018-06-12T07:43:35.388Z,100884.75
2018-06-12T07:46:03.783Z,100879.47
2018-06-12T07:48:32.195Z,100879.42
2018-06-12T07:51:00.595Z,100852.47
2018-06-12T07:53:28.967Z,100876.30
2018-06-12T07:55:57.366Z,100882.41
2018-06-12T07:58:25.829Z,100887.16
2018-06-12T08:00:54.287Z,100882.78
2018-06-12T08:03:22.642Z,100883.63
2018-06-12T08:05:51.042Z,100884.90
2018-06-12T08:08:19.414Z,100884.45
2018-06-12T08:10:47.806Z,100887.92
2018-06-12T08:13:16.187Z,100894.40
2018-06-12T08:15:44.591Z,100894.35
2018-06-12T08:18:12.972Z,100901.72
2018-06-12T08:20:41.371Z,100895.96
2018-06-12T08:23:09.738Z,100896.31
2018-06-12T08:25:38.130Z,100898.37
2018-06-12T08:28:06.495Z,100898.32
2018-06-12T08:30:34.896Z,100904.42
2018-06-12T08:33:03.327Z,100903.06
2018-06-12T08:35:31.713Z,100903.06
2018-06-12T08:38:00.118Z,100906.14
2018-06-12T08:40:28.495Z,100910.94
2018-06-12T08:42:56.889Z,100911.79
2018-06-12T08:45:25.282Z,100911.75
2018-06-12T08:47:53.679Z,100908.67
2018-06-12T08:50:22.046Z,100913.52
2018-06-12T08:52:50.439Z,100913.10
2018-06-12T08:55:18.818Z,100913.05
2018-06-12T08:57:47.235Z,100915.63
2018-06-12T09:00:15.602Z,100914.20
2018-06-12T09:02:44.053Z,100914.96
2018-06-12T09:05:12.431Z,100909.64
2018-06-12T09:07:40.827Z,100909.07
2018-06-12T09:10:09.209Z,100905.05
2018-06-12T09:12:37.606Z,100910.14
2018-06-12T09:15:05.990Z,100903.80
2018-06-12T09:17:34.382Z,100898.48
2018-06-12T09:20:02.775Z,100906.75
2018-06-12T09:22:31.178Z,100910.31
2018-06-12T09:24:59.551Z,100903.77
2018-06-12T09:27:27.957Z,100899.89
2018-06-12T09:29:56.334Z,100898.98
2018-06-12T09:32:24.731Z,100897.21
2018-06-12T09:34:53.102Z,100902.83
2018-06-12T09:37:21.514Z,100903.67
2018-06-12T09:39:49.878Z,100902.31
2018-06-12T09:42:18.270Z,100908.42
2018-06-12T09:44:46.639Z,100906.70
2018-06-12T09:47:15.035Z,100920.19
2018-06-12T09:49:43.411Z,100921.95
2018-06-12T09:52:11.803Z,100919.31
2018-06-12T09:54:40.210Z,100917.93
2018-06-12T09:57:08.583Z,100914.84
2018-06-12T09:59:36.991Z,100912.28
2018-06-12T10:02:05.373Z,100917.15
2018-06-12T10:04:33.796Z,100915.91
2018-06-12T10:07:02.169Z,100917.27
2018-06-12T10:09:30.572Z,100912.48
2018-06-12T10:11:58.946Z,100917.34
2018-06-12T10:14:27.338Z,100921.72
2018-06-12T10:16:55.711Z,100923.89
2018-06-12T10:19:24.115Z,100928.28
2018-06-12T10:21:52.514Z,100924.36
2018-06-12T10:24:20.930Z,100918.59
2018-06-12T10:26:49.311Z,100918.48
2018-06-12T10:29:17.706Z,100925.42
2018-06-12T10:31:46.079Z,100924.00
2018-06-12T10:34:14.478Z,100922.22
2018-06-12T10:36:42.855Z,100925.63
2018-06-12T10:39:11.255Z,100927.59
2018-06-12T10:41:39.631Z,100920.26
2018-06-12T10:44:08.031Z,100924.34
2018-06-12T10:46:36.436Z,100927.25
2018-06-12T10:49:04.830Z,100922.38
2018-06-12T10:51:33.207Z,100931.56
2018-06-12T10:54:01.621Z,100925.34
2018-06-12T10:56:30.079Z,100930.89
2018-06-12T10:58:58.487Z,100933.91
2018-06-12T11:01:26.863Z,100924.78
2018-06-12T11:03:55.302Z,100931.47
2018-06-12T11:06:23.688Z,100932.43
2018-06-12T11:08:52.063Z,100923.30
2018-06-12T11:11:20.462Z,100930.39
2018-06-12T11:13:48.846Z,100928.69
2018-06-12T11:16:17.246Z,100933.95
2018-06-12T11:18:45.628Z,100933.95
2018-06-12T11:21:14.027Z,100933.44
2018-06-12T11:23:42.404Z,100932.09
2018-06-12T11:26:10.819Z,100933.27
2018-06-12T11:28:39.202Z,100927.89
2018-06-12T11:31:07.595Z,100931.67
2018-06-12T11:33:35.970Z,100934.22
2018-06-12T11:36:04.374Z,100932.06
2018-06-12T11:38:32.746Z,100928.64
2018-06-12T11:41:01.147Z,100932.67
2018-06-12T11:43:29.520Z,100929.27
2018-06-12T11:45:57.923Z,100930.23
2018-06-12T11:48:26.306Z,100928.17
2018-06-12T11:50:54.745Z,100929.64
2018-06-12T11:53:23.114Z,100924.14
2018-06-12T11:55:51.503Z,100929.09
2018-06-12T11:58:19.948Z,100925.73
2018-06-12T12:00:48.338Z,100927.59
2018-06-12T12:03:16.738Z,100926.80
2018-06-12T12:05:45.140Z,100931.27
2018-06-12T12:08:13.511Z,100921.22
2018-06-12T12:10:41.902Z,100925.17
2018-06-12T12:13:10.414Z,100926.47
2018-06-12T12:15:38.826Z,100929.45
2018-06-12T12:18:07.206Z,100930.28
2018-06-12T12:20:35.606Z,100934.15
2018-06-12T12:23:03.974Z,100930.08
2018-06-12T12:25:32.391Z,100931.23
2018-06-12T12:28:00.762Z,100929.23
2018-06-12T12:30:29.139Z,100921.56
2018-06-12T12:32:57.531Z,100928.81
2018-06-12T12:35:25.915Z,100924.30
2018-06-12T12:37:54.321Z,100925.09
2018-06-12T12:40:22.695Z,100925.87
2018-06-12T12:42:51.094Z,100925.30
2018-06-12T12:45:19.467Z,100919.89
2018-06-12T12:47:47.942Z,100927.20
2018-06-12T12:50:16.306Z,100923.03
2018-06-12T12:52:44.702Z,100930.36
2018-06-12T12:55:14.698Z,100929.80
2018-06-12T12:57:43.097Z,100929.40
2018-06-12T13:00:11.466Z,100932.52
2018-06-12T13:02:39.862Z,100932.98
2018-06-12T13:05:08.259Z,100937.88
2018-06-12T13:07:36.659Z,100940.53
2018-06-12T13:10:05.042Z,100937.95
2018-06-12T13:12:33.451Z,100935.31
2018-06-12T13:15:01.830Z,100935.73
2018-06-12T13:17:30.237Z,100940.12
2018-06-12T13:19:58.612Z,100936.18
2018-06-12T13:22:27.015Z,100930.86
2018-06-12T13:24:55.394Z,100932.16
2018-06-12T13:27:23.792Z,100927.64
2018-06-12T13:29:52.163Z,100926.59
2018-06-12T13:32:20.562Z,100929.85
2018-06-12T13:34:48.943Z,100929.66
2018-06-12T13:37:17.343Z,100927.30
2018-06-12T13:39:45.723Z,100929.38
2018-06-12T13:42:14.119Z,100925.73
2018-06-12T13:44:42.494Z,100934.91
2018-06-12T13:47:10.916Z,100927.86
2018-06-12T13:49:39.294Z,100927.41
2018-06-12T13:52:07.691Z,100929.13
2018-06-12T13:54:36.087Z,100929.48
2018-06-12T13:57:04.468Z,100927.19
2018-06-12T13:59:32.875Z,100929.31
2018-06-12T14:02:01.277Z,100928.08
2018-06-12T14:04:29.704Z,100926.81
2018-06-12T14:06:58.103Z,100935.13
2018-06-12T14:09:26.566Z,100925.44
2018-06-12T14:11:54.950Z,100927.13
2018-06-12T14:14:23.355Z,100934.45
2018-06-12T14:16:51.730Z,100925.13
2018-06-12T14:19:20.130Z,100923.33
2018-06-12T14:21:48.543Z,100920.72
2018-06-12T14:24:16.922Z,100927.75
2018-06-12T14:26:45.294Z,100916.39
2018-06-12T14:29:13.707Z,100925.22
2018-06-12T14:31:42.082Z,100919.11
2018-06-12T14:34:10.484Z,100918.71
2018-06-12T14:36:38.922Z,100918.16
2018-06-12T14:39:08.799Z,100919.83
2018-06-12T14:41:37.958Z,100924.63
2018-06-12T14:44:06.854Z,100925.00
2018-06-12T14:46:35.281Z,100926.17
2018-06-12T14:49:03.664Z,100923.42
2018-06-12T14:51:32.047Z,100918.14
2018-06-12T14:54:00.451Z,100915.98
2018-06-12T14:56:28.832Z,100922.59
2018-06-12T14:58:57.239Z,100920.09
2018-06-12T15:01:25.659Z,100917.20
2018-06-12T15:03:54.074Z,100916.39
2018-06-12T15:06:22.442Z,100912.92
2018-06-12T15:08:50.874Z,100918.65
2018-06-12T15:11:20.000Z,100916.45
2018-06-12T15:13:48.406Z,100914.19
2018-06-12T15:16:16.803Z,100914.09
2018-06-12T15:18:45.221Z,100917.20
2018-06-12T15:21:13.610Z,100910.66
2018-06-12T15:23:41.992Z,100907.05
2018-06-12T15:26:10.398Z,100901.26
2018-06-12T15:28:38.779Z,100905.06
2018-06-12T15:31:07.494Z,100900.63
2018-06-12T15:33:35.876Z,100900.63
2018-06-12T15:36:04.303Z,100901.94
2018-06-12T15:38:33.452Z,100897.98
2018-06-12T15:41:01.852Z,100894.89
2018-06-12T15:43:30.231Z,100889.67
2018-06-12T15:45:58.692Z,100890.13
2018-06-12T15:48:27.123Z,100895.83
2018-06-12T15:50:55.518Z,100887.92
2018-06-12T15:53:23.898Z,100892.77
2018-06-12T15:55:52.294Z,100886.11
2018-06-12T15:58:20.683Z,100882.13
2018-06-12T16:00:49.131Z,100887.41
2018-06-12T16:03:17.499Z,100888.27
2018-06-12T16:05:45.903Z,100880.81
2018-06-12T16:08:14.271Z,100877.71
2018-06-12T16:10:42.670Z,100876.88
2018-06-12T16:13:11.052Z,100876.42
2018-06-12T16:15:39.443Z,100877.73
2018-06-12T16:18:07.846Z,100882.25
2018-06-12T16:20:36.246Z,100877.55
2018-06-12T16:23:04.618Z,100867.66
2018-06-12T16:25:33.011Z,100872.61
2018-06-12T16:28:01.387Z,100875.83
2018-06-12T16:30:29.807Z,100874.13
2018-06-12T16:32:58.228Z,100870.80
2018-06-12T16:35:26.584Z,100874.87
2018-06-12T16:37:54.983Z,100871.80
2018-06-12T16:40:23.363Z,100876.64
2018-06-12T16:42:51.754Z,100866.12
2018-06-12T16:45:20.122Z,100871.86
2018-06-12T16:47:48.519Z,100875.46
2018-06-12T16:50:17.025Z,100879.09
2018-06-12T16:52:45.434Z,100881.89
2018-06-12T16:55:13.812Z,100876.45
2018-06-12T16:57:42.206Z,100882.45
2018-06-12T17:00:10.587Z,100881.41
2018-06-12T17:02:38.996Z,100876.86
2018-06-12T17:05:07.390Z,100878.30
2018-06-12T17:07:35.795Z,100874.83
2018-06-12T17:10:04.167Z,100877.48
2018-06-12T17:12:32.580Z,100878.86
2018-06-12T17:15:00.971Z,100876.63
2018-06-12T17:17:29.374Z,100879.23
2018-06-12T17:19:57.762Z,100883.11
2018-06-12T17:22:26.159Z,100880.05
2018-06-12T17:24:54.530Z,100881.80
2018-06-12T17:27:23.039Z,100880.98
2018-06-12T17:29:51.430Z,100882.36
2018-06-12T17:32:19.831Z,100874.93
2018-06-12T17:34:48.207Z,100874.09
2018-06-12T17:37:16.608Z,100870.14
2018-06-12T17:39:44.978Z,100871.05
2018-06-12T17:42:13.421Z,100871.53
2018-06-12T17:44:41.778Z,100870.23
2018-06-12T17:47:10.180Z,100874.72
2018-06-12T17:49:38.555Z,100877.42
2018-06-12T17:52:06.963Z,100874.89
2018-06-12T17:54:35.365Z,100878.55
2018-06-12T17:57:03.735Z,100876.53
2018-06-12T17:59:32.136Z,100878.80
2018-06-12T18:02:00.509Z,100877.98
2018-06-12T18:04:28.935Z,100873.21
2018-06-12T18:06:57.305Z,100880.79
2018-06-12T18:09:25.698Z,100878.63
2018-06-12T18:11:54.070Z,100882.63
2018-06-12T18:14:22.470Z,100880.00
2018-06-12T18:16:50.846Z,100884.83
2018-06-12T18:19:19.421Z,100887.07
2018-06-12T18:21:47.847Z,100879.23
2018-06-12T18:24:16.234Z,100875.77
2018-06-12T18:26:44.706Z,100879.33
2018-06-12T18:29:13.103Z,100876.78
2018-06-12T18:31:41.482Z,100886.53
2018-06-12T18:34:09.882Z,100875.69
2018-06-12T18:36:38.257Z,100877.94
2018-06-12T18:39:08.123Z,100874.97
2018-06-12T18:41:36.494Z,100872.44
2018-06-12T18:44:04.898Z,100874.28
2018-06-12T18:46:33.276Z,100866.93
2018-06-12T18:49:01.687Z,100868.31
2018-06-12T18:51:30.068Z,100868.38
2018-06-12T18:53:58.466Z,100873.72
2018-06-12T18:56:26.851Z,100878.58
2018-06-12T18:58:55.246Z,100875.16
2018-06-12T19:01:23.619Z,100874.77
2018-06-12T19:03:52.069Z,100869.12
2018-06-12T19:06:20.439Z,100868.72
2018-06-12T19:08:48.816Z,100866.09
2018-06-12T19:11:17.211Z,100869.59
2018-06-12T19:13:45.587Z,100868.74
2018-06-12T19:16:14.008Z,100875.33
2018-06-12T19:18:42.380Z,100876.20
2018-06-12T19:21:10.789Z,100879.75
2018-06-12T19:23:39.159Z,100879.80
2018-06-12T19:26:07.559Z,100887.69
2018-06-12T19:28:35.936Z,100883.34
2018-06-12T19:31:04.366Z,100880.72
2018-06-12T19:33:32.791Z,100879.47
2018-06-12T19:36:01.187Z,100878.61
2018-06-12T19:38:29.571Z,100878.62
2018-06-12T19:40:57.971Z,100884.33
2018-06-12T19:43:26.365Z,100879.08
2018-06-12T19:45:54.758Z,100877.36
2018-06-12T19:48:23.135Z,100887.02
2018-06-12T19:50:51.535Z,100889.19
2018-06-12T19:53:19.911Z,100894.45
2018-06-12T19:55:48.331Z,100888.37
2018-06-12T19:58:16.703Z,100886.67
2018-06-12T20:00:45.269Z,100890.16
2018-06-12T20:03:13.636Z,100888.44
2018-06-12T20:05:42.051Z,100889.31
2018-06-12T20:08:10.439Z,100882.80
2018-06-12T20:10:38.834Z,100884.52
2018-06-12T20:13:07.296Z,100883.25
2018-06-12T20:15:35.658Z,100885.43
2018-06-12T20:18:04.167Z,100887.20
2018-06-12T20:20:32.582Z,100886.81
2018-06-12T20:23:00.954Z,100885.08
2018-06-12T20:25:29.340Z,100886.00
2018-06-12T20:27:57.735Z,100888.68
2018-06-12T20:30:26.124Z,100890.41
2018-06-12T20:32:54.535Z,100893.94
2018-06-12T20:35:22.919Z,100883.90
2018-06-12T20:37:51.314Z,100883.95
2018-06-12T20:40:19.691Z,100876.59
2018-06-12T20:42:48.125Z,100881.84
2018-06-12T20:45:16.523Z,100884.52
2018-06-12T20:47:44.918Z,100885.89
2018-06-12T20:50:13.309Z,100888.12
2018-06-12T20:52:41.716Z,100897.81
2018-06-12T20:55:10.107Z,100901.80
2018-06-12T20:57:38.510Z,100896.55
2018-06-12T21:00:06.892Z,100907.06
2018-06-12T21:02:35.330Z,100904.03
2018-06-12T21:05:03.770Z,100911.95
2018-06-12T21:07:32.239Z,100915.08
2018-06-12T21:10:00.579Z,100911.60
2018-06-12T21:12:28.970Z,100914.72
2018-06-12T21:14:57.347Z,100912.97
2018-06-12T21:17:25.738Z,100916.50
2018-06-12T21:19:54.119Z,100910.84
2018-06-12T21:22:22.515Z,100915.69
2018-06-12T21:24:50.890Z,100919.63
2018-06-12T21:27:19.283Z,100918.81
2018-06-12T21:29:47.742Z,100914.44
2018-06-12T21:32:16.143Z,100911.41
2018-06-12T21:34:44.514Z,100926.73
2018-06-12T21:37:12.934Z,100927.64
2018-06-12T21:39:41.307Z,100933.74
2018-06-12T21:42:09.678Z,100940.30
2018-06-12T21:44:38.070Z,100938.55
2018-06-12T21:47:06.443Z,100941.61
2018-06-12T21:49:34.839Z,100938.09
2018-06-12T21:52:03.216Z,100939.40
2018-06-12T21:54:31.610Z,100932.39
2018-06-12T21:56:59.986Z,100933.29
2018-06-12T21:59:28.378Z,100932.84
2018-06-12T22:01:56.765Z,100935.47
2018-06-12T22:04:25.215Z,100935.05
2018-06-12T22:06:53.619Z,100937.27
2018-06-12T22:09:22.044Z,100936.38
2018-06-12T22:11:50.452Z,100934.64
2018-06-12T22:14:18.851Z,100933.74
2018-06-12T22:16:47.227Z,100928.50
2018-06-12T22:19:15.635Z,100929.40
2018-06-12T22:21:44.016Z,100927.19
2018-06-12T22:24:12.405Z,100932.92
2018-06-12T22:26:40.775Z,100925.06
2018-06-12T22:29:09.817Z,100930.34
2018-06-12T22:31:38.219Z,100924.66
2018-06-12T22:34:06.658Z,100925.11
2018-06-12T22:36:35.064Z,100918.13
2018-06-12T22:39:03.527Z,100919.89
2018-06-12T22:41:31.923Z,100912.03
2018-06-12T22:44:00.343Z,100916.83
2018-06-12T22:46:28.743Z,100916.41
2018-06-12T22:48:57.163Z,100908.09
2018-06-12T22:51:25.625Z,100918.59
2018-06-12T22:53:54.023Z,100922.97
2018-06-12T22:56:22.426Z,100926.91
2018-06-12T22:58:50.819Z,100925.19
2018-06-12T23:01:19.243Z,100919.05
2018-06-12T23:03:47.690Z,100915.56
2018-06-12T23:06:16.107Z,100923.47
2018-06-12T23:08:44.498Z,100921.30
2018-06-12T23:11:12.918Z,100922.20
2018-06-12T23:13:41.314Z,100918.30
2018-06-12T23:16:09.792Z,100910.44
2018-06-12T23:18:38.186Z,100911.75
2018-06-12T23:21:20.755Z,100906.99
2018-06-12T23:23:49.154Z,100912.23
2018-06-12T23:26:17.583Z,100917.97
2018-06-12T23:28:45.982Z,100924.52
2018-06-12T23:31:14.402Z,100919.32
2018-06-12T23:33:42.812Z,100912.77
2018-06-12T23:36:11.234Z,100913.66
2018-06-12T23:38:39.645Z,100912.36
2018-06-12T23:41:08.067Z,100907.11
2018-06-12T23:43:36.482Z,100901.45
2018-06-12T23:46:04.995Z,100899.73
2018-06-12T23:48:33.403Z,100893.63
2018-06-12T23:51:01.818Z,100892.36
2018-06-12T23:53:30.226Z,100901.53
2018-06-12T23:55:58.651Z,100903.78
2018-06-12T23:58:27.063Z,100909.47
